Time;durP1;ratioP1;P1;durP2;ratioP2;P2;SDS_P1;SDS_P2;PMS_P1;PMS_P2;Temp;Humidity;BMP_temperature;BMP_pressure;BME280_temperature;BME280_humidity;BME280_pressure;Samples;Min_cycle;Max_cycle;Signal;HPM_P1;HPM_P2
2022/11/24 00:00:23;;;;;;;29.33;9.38;;;;;;;9.96;98.09;98604.81;5094396;28;20032;-48
2022/11/24 00:02:49;;;;;;;23.50;8.77;;;;;;;9.69;97.27;98604.75;5095604;28;20540;-47
2022/11/24 00:05:14;;;;;;;19.30;9.25;;;;;;;9.65;97.39;98606.16;5095591;28;20060;-47
2022/11/24 00:07:40;;;;;;;24.05;11.35;;;;;;;9.62;97.56;98608.34;5095557;28;20018;-48
2022/11/24 00:10:06;;;;;;;18.88;9.50;;;;;;;9.53;97.64;98613.75;5094028;28;20020;-48
2022/11/24 00:12:31;;;;;;;16.83;9.82;;;;;;;9.73;98.79;98615.66;5095461;28;20118;-48
2022/11/24 00:14:57;;;;;;;13.80;10.32;;;;;;;9.65;97.60;98614.00;5095377;28;20031;-48
2022/11/24 00:17:22;;;;;;;22.98;12.88;;;;;;;9.79;98.30;98617.47;5095436;28;20031;-47
2022/11/24 00:19:48;;;;;;;167.38;150.77;;;;;;;10.17;99.96;98617.78;5095297;28;20107;-48
2022/11/24 00:22:14;;;;;;;42.33;37.92;;;;;;;10.50;100.00;98619.69;5095193;28;20042;-48
2022/11/24 00:24:39;;;;;;;165.02;148.43;;;;;;;10.28;97.50;98623.44;5095008;28;20032;-48
2022/11/24 00:27:05;;;;;;;98.60;88.28;;;;;;;10.06;97.00;98623.63;5093796;28;20375;-47
2022/11/24 00:29:30;;;;;;;42.65;34.80;;;;;;;9.99;97.01;98618.34;5095021;28;20038;-47
2022/11/24 00:31:56;;;;;;;47.83;38.67;;;;;;;10.07;97.78;98625.22;5094982;28;20039;-48
2022/11/24 00:34:22;;;;;;;22.95;17.48;;;;;;;10.11;97.63;98620.41;5093729;28;20032;-47
2022/11/24 00:36:48;;;;;;;19.92;9.98;;;;;;;10.09;97.28;98617.16;5094955;28;20031;-47
2022/11/24 00:39:14;;;;;;;15.65;9.32;;;;;;;9.98;96.06;98615.94;5093664;28;20085;-48
2022/11/24 00:41:41;;;;;;;31.17;20.08;;;;;;;9.86;95.60;98610.47;5094776;28;20028;-48
2022/11/24 00:44:07;;;;;;;18.67;10.65;;;;;;;9.98;96.97;98613.31;5094813;28;20013;-48
2022/11/24 00:46:33;;;;;;;16.15;9.45;;;;;;;10.12;97.78;98609.72;5094782;28;20439;-48
2022/11/24 00:48:59;;;;;;;16.77;9.15;;;;;;;10.15;97.27;98611.13;5093631;28;20025;-48
2022/11/24 00:51:28;;;;;;;18.15;8.73;;;;;;;10.21;96.89;98607.72;5094551;28;20031;-48
2022/11/24 00:53:56;;;;;;;16.45;7.45;;;;;;;9.99;95.29;98601.81;5094837;28;20024;-48
2022/11/24 00:56:23;;;;;;;20.73;8.60;;;;;;;9.54;93.69;98604.09;5094629;28;20035;-48
2022/11/24 00:58:49;;;;;;;15.30;7.70;;;;;;;9.13;92.29;98597.03;5094549;28;20569;-48
2022/11/24 01:01:18;;;;;;;13.45;7.22;;;;;;;8.55;91.00;98607.72;5094730;28;20126;-47
2022/11/24 01:03:45;;;;;;;21.45;8.93;;;;;;;8.18;92.93;98609.56;5094403;28;20016;-48
2022/11/24 01:06:14;;;;;;;15.60;7.72;;;;;;;8.15;95.30;98604.75;5094453;28;20028;-48
2022/11/24 01:08:40;;;;;;;14.55;8.25;;;;;;;8.14;95.61;98605.72;5094397;28;20013;-48
2022/11/24 01:11:13;;;;;;;13.55;7.10;;;;;;;8.03;95.54;98604.41;5092892;28;20122;-48
2022/11/24 01:13:40;;;;;;;19.45;7.47;;;;;;;8.11;96.41;98608.69;5094299;28;20024;-48
2022/11/24 01:16:13;;;;;;;17.35;6.97;;;;;;;8.14;96.65;98610.94;5092919;28;20513;-48
2022/11/24 01:18:38;;;;;;;17.88;7.43;;;;;;;8.25;97.54;98605.22;5094432;28;20028;-48
2022/11/24 01:21:04;;;;;;;17.35;7.10;;;;;;;8.65;99.24;98610.00;5094178;28;20039;-48
2022/11/24 01:23:31;;;;;;;18.45;7.68;;;;;;;9.02;100.00;98616.72;5094352;28;20013;-48
2022/11/24 01:25:56;;;;;;;17.05;7.88;;;;;;;8.85;98.14;98628.47;5078467;28;20074;-48
2022/11/24 01:28:22;;;;;;;18.75;8.77;;;;;;;8.44;96.14;98640.41;5072475;28;20111;-49
2022/11/24 01:31:01;;;;;;;14.93;7.93;;;;;;;8.60;98.40;98648.00;5092546;28;20501;-47
2022/11/24 01:33:27;;;;;;;12.82;7.28;;;;;;;8.92;98.94;98652.91;5093933;28;20101;-47
2022/11/24 01:35:53;;;;;;;14.38;7.75;;;;;;;9.02;98.16;98652.56;5093854;28;20063;-48
2022/11/24 01:38:19;;;;;;;12.35;8.68;;;;;;;9.00;97.39;98663.22;5092520;28;20137;-48
2022/11/24 01:40:45;;;;;;;15.43;10.02;;;;;;;9.06;97.71;98662.47;5094041;28;20035;-48
2022/11/24 01:43:17;;;;;;;16.42;7.80;;;;;;;9.31;98.27;98665.41;5092483;28;20405;-48
2022/11/24 01:45:43;;;;;;;14.50;8.38;;;;;;;9.39;97.84;98669.69;5093872;28;20031;-48
2022/11/24 01:48:43;;;;;;;11.43;9.25;;;;;;;9.42;97.42;98663.25;5093543;28;20069;-48
2022/11/24 01:51:09;;;;;;;20.45;9.70;;;;;;;9.39;97.33;98665.25;5093787;28;20031;-48
2022/11/24 01:53:35;;;;;;;19.88;10.20;;;;;;;9.32;97.38;98666.25;5093449;28;20393;-48
2022/11/24 01:56:03;;;;;;;16.88;11.57;;;;;;;9.30;97.65;98663.81;5092165;28;20436;-48
2022/11/24 01:58:33;;;;;;;14.70;9.52;;;;;;;9.25;97.64;98671.44;5093148;28;20157;-48
2022/11/24 02:00:58;;;;;;;16.80;10.95;;;;;;;9.38;98.79;98668.91;5092034;28;20173;-48
2022/11/24 02:03:31;;;;;;;14.05;9.90;;;;;;;9.51;98.99;98678.63;5093571;28;20484;-48
2022/11/24 02:06:05;;;;;;;17.52;9.88;;;;;;;9.71;99.14;98677.94;5093309;28;20024;-48
2022/11/24 02:08:58;;;;;;;16.88;10.30;;;;;;;9.70;98.05;98676.31;5091969;28;20039;-48
2022/11/24 02:11:28;;;;;;;14.63;9.00;;;;;;;9.48;96.32;98670.38;5093106;28;20119;-48
2022/11/24 02:13:55;;;;;;;22.90;10.40;;;;;;;9.18;94.12;98671.41;5092057;28;20405;-48
2022/11/24 02:16:21;;;;;;;15.45;6.13;;;;;;;8.88;92.92;98675.22;5091847;28;20486;-48
2022/11/24 02:18:46;;;;;;;16.05;7.35;;;;;;;8.75;93.71;98678.50;5091810;28;20096;-48
2022/11/24 02:21:15;;;;;;;17.80;8.30;;;;;;;8.75;95.00;98681.13;5092940;28;20162;-48
2022/11/24 02:23:55;;;;;;;15.73;7.97;;;;;;;8.83;95.57;98688.03;5092913;28;20031;-48
2022/11/24 02:26:27;;;;;;;14.38;7.63;;;;;;;8.69;94.00;98687.13;5092967;28;20115;-48
2022/11/24 02:28:52;;;;;;;14.63;6.53;;;;;;;8.60;94.00;98684.63;5092660;28;20139;-48
2022/11/24 02:31:18;;;;;;;11.57;7.07;;;;;;;8.48;93.63;98691.34;5091440;28;20221;-48
2022/11/24 02:33:44;;;;;;;15.88;6.65;;;;;;;8.34;93.98;98695.63;5091839;28;20505;-48
2022/11/24 02:36:10;;;;;;;14.35;7.13;;;;;;;8.32;94.68;98688.97;5091525;28;20095;-48
2022/11/24 02:38:35;;;;;;;15.43;6.88;;;;;;;8.43;95.47;98680.66;5092875;28;20070;-48
2022/11/24 02:41:04;;;;;;;14.57;7.25;;;;;;;8.34;95.41;98692.19;5091315;28;20183;-48
2022/11/24 02:43:36;;;;;;;19.10;7.22;;;;;;;8.30;95.12;98693.56;5092622;28;20117;-47
2022/11/24 02:46:02;;;;;;;18.08;7.43;;;;;;;8.13;93.95;98688.56;5092777;28;20028;-48
2022/11/24 02:48:27;;;;;;;14.98;5.43;;;;;;;7.95;93.96;98691.56;5092550;28;20092;-48
2022/11/24 02:50:53;;;;;;;14.88;6.80;;;;;;;7.89;94.28;98688.88;5091078;28;20042;-48
2022/11/24 02:53:19;;;;;;;13.48;5.70;;;;;;;7.95;95.38;98685.53;5092399;28;20024;-48
2022/11/24 02:55:44;;;;;;;14.90;5.80;;;;;;;7.87;94.56;98693.47;5092635;28;20055;-48
2022/11/24 02:58:10;;;;;;;16.38;7.20;;;;;;;7.88;94.91;98702.94;5074175;28;20028;-48
2022/11/24 03:00:36;;;;;;;16.30;6.80;;;;;;;7.70;93.97;98700.69;5092543;28;20142;-48
2022/11/24 03:03:02;;;;;;;19.08;6.90;;;;;;;7.41;92.45;98707.56;5092263;28;20507;-48
2022/11/24 03:05:28;;;;;;;13.05;6.25;;;;;;;7.19;93.73;98706.63;5092168;28;20024;-48
2022/11/24 03:07:54;;;;;;;14.82;6.60;;;;;;;7.33;95.20;98711.06;5092177;28;20024;-48
2022/11/24 03:10:19;;;;;;;14.75;7.20;;;;;;;7.36;95.14;98708.09;5090287;28;20046;-48
2022/11/24 03:12:45;;;;;;;16.50;7.10;;;;;;;7.16;94.38;98702.56;5090711;28;20041;-48
2022/11/24 03:15:10;;;;;;;18.35;7.97;;;;;;;6.93;93.54;98701.81;5092086;28;20744;-48
2022/11/24 03:17:36;;;;;;;36.53;8.68;;;;;;;6.70;92.96;98707.84;5092257;28;20036;-47
2022/11/24 03:20:02;;;;;;;13.10;6.22;;;;;;;6.50;93.32;98704.06;5090694;28;20371;-48
2022/11/24 03:22:28;;;;;;;14.55;5.30;;;;;;;6.48;94.66;98706.88;5091921;28;20490;-47
2022/11/24 03:24:53;;;;;;;20.85;7.00;;;;;;;6.65;95.98;98707.56;5091994;28;20061;-48
2022/11/24 03:27:19;;;;;;;15.63;6.15;;;;;;;6.87;96.08;98707.72;5091984;28;20024;-48
2022/11/24 03:29:45;;;;;;;16.90;5.30;;;;;;;7.09;96.69;98711.28;5090449;28;20044;-48
2022/11/24 03:32:10;;;;;;;14.18;5.20;;;;;;;7.39;97.01;98717.38;5090576;28;20024;-47
2022/11/24 03:34:36;;;;;;;19.30;5.88;;;;;;;7.74;97.19;98713.22;5091941;28;20111;-48
2022/11/24 03:37:02;;;;;;;19.73;5.18;;;;;;;7.91;96.74;98719.06;5091890;28;20032;-48
2022/11/24 03:39:28;;;;;;;18.73;6.50;;;;;;;8.23;97.05;98719.66;5091890;28;20424;-48
2022/11/24 03:41:54;;;;;;;13.32;6.70;;;;;;;8.46;96.45;98722.13;5090571;28;20060;-48
2022/11/24 03:44:20;;;;;;;15.68;7.90;;;;;;;8.62;95.59;98715.03;5090473;28;20055;-48
2022/11/24 03:46:45;;;;;;;11.75;6.13;;;;;;;8.69;94.63;98715.91;5091777;28;20129;-48
2022/11/24 03:49:11;;;;;;;9.82;6.40;;;;;;;8.66;93.59;98713.66;5091778;28;20167;-48
2022/11/24 03:51:36;;;;;;;13.68;5.65;;;;;;;8.60;93.18;98715.22;5090289;28;20051;-48
2022/11/24 03:54:02;;;;;;;13.35;6.40;;;;;;;8.42;91.89;98720.88;5091672;28;20081;-48
2022/11/24 03:56:27;;;;;;;18.02;6.57;;;;;;;8.10;89.74;98727.31;5091658;28;20016;-48
2022/11/24 03:58:53;;;;;;;20.05;6.65;;;;;;;7.96;90.24;98732.38;5091651;28;20493;-48
2022/11/24 04:01:19;;;;;;;12.38;6.63;;;;;;;8.03;92.16;98740.31;5090326;28;20401;-47
2022/11/24 04:03:44;;;;;;;18.38;5.63;;;;;;;8.23;92.40;98739.72;5090578;28;20085;-48
2022/11/24 04:06:10;;;;;;;15.80;6.47;;;;;;;8.45;92.62;98735.38;5090273;28;20031;-48
2022/11/24 04:08:39;;;;;;;18.15;7.40;;;;;;;8.36;91.07;98730.22;5091566;28;20024;-47
2022/11/24 04:11:04;;;;;;;12.52;5.93;;;;;;;8.33;91.48;98729.78;5091441;28;20572;-48
2022/11/24 04:13:30;;;;;;;18.05;6.32;;;;;;;8.24;90.02;98723.06;5091502;28;20103;-48
2022/11/24 04:15:55;;;;;;;15.45;5.93;;;;;;;8.02;89.06;98717.78;5090161;28;20051;-48
2022/11/24 04:18:21;;;;;;;68.13;61.10;;;;;;;7.75;88.43;98717.47;5091456;28;20070;-48
2022/11/24 04:20:50;;;;;;;17.58;9.25;;;;;;;7.54;88.69;98712.94;5090057;28;20036;-47
2022/11/24 04:23:16;;;;;;;16.77;6.78;;;;;;;7.21;89.00;98709.88;5094344;28;20532;-47
2022/11/24 04:25:42;;;;;;;15.38;5.88;;;;;;;6.95;89.39;98710.25;5095216;28;20024;-48
2022/11/24 04:28:08;;;;;;;12.20;5.80;;;;;;;6.74;89.62;98710.91;5095145;28;20113;-48
2022/11/24 04:30:35;;;;;;;14.75;5.93;;;;;;;6.59;90.22;98726.50;5094851;28;20052;-48
2022/11/24 04:33:01;;;;;;;14.65;5.65;;;;;;;6.49;91.27;98737.16;5095139;28;20016;-48
2022/11/24 04:35:27;;;;;;;15.13;5.75;;;;;;;6.51;92.52;98729.97;5095007;28;20410;-47
2022/11/24 04:37:52;;;;;;;14.73;4.95;;;;;;;6.72;93.19;98716.31;5094978;28;20021;-47
2022/11/24 04:40:18;;;;;;;12.57;5.05;;;;;;;6.81;93.12;98722.28;5093610;28;20047;-48
2022/11/24 04:42:52;;;;;;;13.38;5.13;;;;;;;7.05;93.36;98730.91;5094917;28;20024;-47
2022/11/24 04:45:17;;;;;;;9.63;5.55;;;;;;;7.29;93.53;98722.84;5094791;28;20085;-48
2022/11/24 04:47:43;;;;;;;6.80;4.32;;;;;;;7.36;92.65;98715.09;5093460;28;20028;-48
2022/11/24 04:50:09;;;;;;;10.07;5.40;;;;;;;7.23;91.77;98702.66;5093313;28;20127;-47
2022/11/24 04:52:34;;;;;;;8.93;4.45;;;;;;;7.08;90.85;98714.88;5093356;28;20034;-47
2022/11/24 04:55:00;;;;;;;11.88;4.47;;;;;;;6.94;89.85;98725.13;5094964;28;20131;-48
2022/11/24 04:57:26;;;;;;;11.40;4.25;;;;;;;6.78;89.43;98730.44;5094545;28;20028;-48
2022/11/24 04:59:55;;;;;;;11.98;3.78;;;;;;;6.66;88.87;98727.44;5094586;28;20028;-48
2022/11/24 05:02:21;;;;;;;13.98;5.13;;;;;;;6.68;90.16;98729.84;5094443;28;20493;-48
2022/11/24 05:04:47;;;;;;;17.50;5.38;;;;;;;6.78;90.54;98740.88;5093299;28;20035;-48
2022/11/24 05:07:14;;;;;;;14.85;5.35;;;;;;;7.12;92.17;98745.69;5093104;28;20020;-47
2022/11/24 05:12:29;;;;;;;22.92;5.93;;;;;;;6.98;89.64;98751.63;5094597;28;20520;-47
2022/11/24 05:14:59;;;;;;;49.50;7.20;;;;;;;6.60;88.81;98747.19;5094294;28;20028;-47
2022/11/24 05:17:28;;;;;;;16.83;5.50;;;;;;;6.24;88.18;98752.13;5094444;28;20020;-47
2022/11/24 05:19:54;;;;;;;13.13;7.30;;;;;;;6.05;89.41;98740.31;5092915;28;20446;-48
2022/11/24 05:22:19;;;;;;;12.85;6.47;;;;;;;6.30;91.58;98748.00;5092774;28;20109;-48
2022/11/24 05:24:45;;;;;;;22.95;6.38;;;;;;;6.32;90.19;98751.28;5094120;28;20024;-47
2022/11/24 05:27:11;;;;;;;12.00;6.35;;;;;;;6.20;89.85;98750.84;5094042;28;20024;-47
2022/11/24 05:29:36;;;;;;;13.85;5.70;;;;;;;6.29;90.03;98752.41;5094021;28;20147;-47
2022/11/24 05:32:02;;;;;;;6.50;5.13;;;;;;;6.49;91.28;98746.78;5094052;28;20028;-47
2022/11/24 05:34:31;;;;;;;18.70;7.55;;;;;;;6.63;90.74;98755.66;5093358;28;20016;-47
2022/11/24 05:37:02;;;;;;;22.67;7.55;;;;;;;6.67;90.76;98749.91;5094158;28;20031;-48
2022/11/24 05:39:31;;;;;;;18.92;5.95;;;;;;;6.62;90.08;98746.19;5092866;28;20024;-47
2022/11/24 05:41:57;;;;;;;23.02;6.10;;;;;;;6.78;90.77;98746.09;5092472;28;20436;-47
2022/11/24 05:44:23;;;;;;;11.27;5.40;;;;;;;6.93;90.29;98749.56;5092429;28;20020;-48
2022/11/24 05:46:51;;;;;;;20.70;5.88;;;;;;;6.85;89.46;98756.66;5092381;28;20375;-48
2022/11/24 05:49:17;;;;;;;12.25;6.03;;;;;;;6.63;88.26;98751.25;5093608;28;20099;-48
2022/11/24 05:51:42;;;;;;;10.57;5.05;;;;;;;6.48;88.67;98760.78;5092188;28;20127;-47
2022/11/24 05:54:08;;;;;;;20.10;5.95;;;;;;;6.30;88.19;98759.28;5092346;28;20099;-47
2022/11/24 05:56:33;;;;;;;11.43;5.30;;;;;;;6.10;88.10;98752.84;5093475;28;20091;-48
2022/11/24 05:58:59;;;;;;;8.55;4.70;;;;;;;5.93;87.97;98754.66;5093462;28;20103;-47
2022/11/24 06:01:25;;;;;;;8.55;4.80;;;;;;;5.80;87.89;98756.00;5092062;28;20042;-47
2022/11/24 06:03:50;;;;;;;53.17;8.05;;;;;;;5.84;88.64;98758.31;5093339;28;20027;-47
2022/11/24 06:06:16;;;;;;;76.15;10.65;;;;;;;5.93;89.01;98759.88;5093206;28;20039;-47
2022/11/24 06:08:41;;;;;;;99.32;12.10;;;;;;;5.94;89.90;98758.91;5093520;28;20510;-47
2022/11/24 06:11:17;;;;;;;9.48;5.20;;;;;;;6.13;90.68;98760.31;5093142;28;20393;-48
2022/11/24 06:13:44;;;;;;;10.55;4.70;;;;;;;6.45;91.12;98764.56;5091894;28;20536;-47
2022/11/24 06:16:10;;;;;;;13.15;5.00;;;;;;;6.78;90.21;98762.56;5093082;28;20070;-47
2022/11/24 06:18:36;;;;;;;7.30;5.07;;;;;;;6.66;88.14;98756.13;5074901;28;20069;-47
2022/11/24 06:21:02;;;;;;;7.90;4.60;;;;;;;6.42;86.82;98751.03;5093239;28;20032;-47
2022/11/24 06:23:28;;;;;;;13.73;5.25;;;;;;;6.22;87.59;98753.28;5092965;28;20238;-47
2022/11/24 06:25:56;;;;;;;21.88;5.63;;;;;;;6.16;88.02;98757.38;5091652;28;20119;-47
2022/11/24 06:28:21;;;;;;;7.72;4.22;;;;;;;6.07;87.27;98758.41;5091514;28;20530;-47
2022/11/24 06:30:47;;;;;;;10.20;4.97;;;;;;;6.04;88.82;98748.31;5091265;28;20051;-47
2022/11/24 06:33:13;;;;;;;12.88;4.53;;;;;;;6.28;89.81;98755.19;5092756;28;20028;-47
2022/11/24 06:35:38;;;;;;;10.27;4.63;;;;;;;6.53;89.91;98764.50;5091364;28;20058;-47
2022/11/24 06:38:04;;;;;;;9.23;4.78;;;;;;;6.55;88.58;98770.38;5091429;28;20028;-47
2022/11/24 06:40:30;;;;;;;10.95;4.90;;;;;;;6.54;87.71;98776.56;5091350;28;20394;-47
2022/11/24 06:42:55;;;;;;;14.13;4.93;;;;;;;6.73;88.54;98783.13;5092642;28;20027;-47
2022/11/24 06:45:22;;;;;;;9.18;4.43;;;;;;;7.04;89.11;98778.84;5091733;28;20506;-48
2022/11/24 06:47:48;;;;;;;10.25;4.18;;;;;;;7.42;89.13;98786.69;5091095;28;20494;-48
2022/11/24 06:50:13;;;;;;;10.13;5.25;;;;;;;7.61;88.44;98773.13;5091048;28;20069;-48
2022/11/24 06:52:39;;;;;;;11.45;5.18;;;;;;;7.87;88.60;98771.84;5092436;28;20118;-48
2022/11/24 06:55:05;;;;;;;13.77;5.07;;;;;;;7.82;86.76;98772.41;5092287;28;20016;-48
2022/11/24 06:57:31;;;;;;;11.57;5.20;;;;;;;7.58;86.14;98786.53;5092388;28;20107;-48
2022/11/24 06:59:57;;;;;;;14.27;5.38;;;;;;;7.68;87.31;98794.09;5091060;28;20463;-48
2022/11/24 07:02:23;;;;;;;14.55;5.57;;;;;;;7.72;86.25;98803.19;5092231;28;20016;-48
2022/11/24 07:04:48;;;;;;;14.65;5.43;;;;;;;7.72;85.93;98796.16;5092327;28;20509;-48
2022/11/24 07:07:14;;;;;;;9.95;4.78;;;;;;;7.74;84.73;98790.78;5092222;28;20110;-47
2022/11/24 07:09:40;;;;;;;13.55;4.95;;;;;;;7.67;84.33;98795.91;5092104;28;20046;-48
2022/11/24 07:12:06;;;;;;;15.43;4.75;;;;;;;7.85;85.33;98794.72;5092100;28;20024;-48
2022/11/24 07:14:31;;;;;;;20.15;4.65;;;;;;;8.13;83.77;98797.53;5090799;28;20139;-48
2022/11/24 07:16:57;;;;;;;6.18;4.05;;;;;;;8.30;82.12;98801.56;5092108;28;20055;-48
2022/11/24 07:19:22;;;;;;;9.48;4.15;;;;;;;8.51;81.46;98794.78;5092113;28;20048;-48
2022/11/24 07:21:48;;;;;;;12.07;4.85;;;;;;;8.77;80.21;98800.34;5090639;28;20497;-48
2022/11/24 07:24:14;;;;;;;10.98;5.18;;;;;;;9.08;79.43;98806.25;5090663;28;20099;-48
2022/11/24 07:26:39;;;;;;;9.43;3.97;;;;;;;9.44;78.75;98800.91;5092233;28;20020;-48
2022/11/24 07:29:05;;;;;;;14.38;4.47;;;;;;;9.83;77.29;98804.81;5091638;28;20531;-48
2022/11/24 07:31:31;;;;;;;13.50;3.80;;;;;;;10.12;76.66;98803.78;5090675;28;20173;-48
2022/11/24 07:33:56;;;;;;;19.27;5.32;;;;;;;10.41;75.00;98815.03;5092195;28;20497;-48
2022/11/24 07:36:23;;;;;;;9.55;3.88;;;;;;;10.80;75.11;98813.50;5090536;28;20529;-48
2022/11/24 07:38:49;;;;;;;9.63;4.32;;;;;;;11.18;73.65;98818.22;5090657;28;20028;-48
2022/11/24 07:41:17;;;;;;;11.13;4.55;;;;;;;11.51;72.15;98812.16;5090480;28;20036;-48
2022/11/24 07:43:42;;;;;;;19.48;5.50;;;;;;;11.89;72.15;98807.13;5091829;28;20105;-48
2022/11/24 07:46:11;;;;;;;13.23;5.20;;;;;;;12.15;71.67;98819.41;5090481;28;20481;-48
2022/11/24 07:48:37;;;;;;;10.95;4.70;;;;;;;11.96;71.67;98818.41;5090469;28;20409;-48
2022/11/24 07:51:03;;;;;;;11.63;4.93;;;;;;;11.75;71.86;98827.34;5090345;28;20027;-48
2022/11/24 07:53:30;;;;;;;19.25;5.15;;;;;;;11.71;71.51;98825.28;5091691;28;20028;-48
2022/11/24 07:55:59;;;;;;;15.65;4.93;;;;;;;11.82;72.48;98829.94;5091669;28;20017;-48
2022/11/24 07:58:29;;;;;;;12.82;4.75;;;;;;;12.13;72.00;98836.38;5094909;28;20031;-48
2022/11/24 08:00:55;;;;;;;15.38;6.18;;;;;;;12.38;71.92;98828.63;5095779;28;20034;-48
2022/11/24 08:03:21;;;;;;;14.60;5.25;;;;;;;12.52;70.39;98827.56;5095696;28;20097;-48
2022/11/24 08:05:58;;;;;;;25.20;5.78;;;;;;;12.63;70.31;98841.06;5095628;28;20032;-48
2022/11/24 08:08:24;;;;;;;12.43;5.53;;;;;;;12.79;68.97;98848.47;5094284;28;20057;-48
2022/11/24 08:10:50;;;;;;;14.75;6.82;;;;;;;12.91;68.49;98848.63;5094132;28;20529;-48
2022/11/24 08:13:16;;;;;;;21.05;6.90;;;;;;;13.11;67.41;98841.41;5095523;28;20020;-48
2022/11/24 08:15:42;;;;;;;15.10;6.80;;;;;;;13.34;66.03;98837.41;5094107;28;20051;-48
2022/11/24 08:18:08;;;;;;;11.88;6.88;;;;;;;13.05;64.84;98844.91;5095400;28;20066;-48
2022/11/24 08:20:33;;;;;;;10.45;5.07;;;;;;;12.61;63.25;98851.00;5095376;28;20020;-48
2022/11/24 08:22:59;;;;;;;12.18;5.45;;;;;;;12.28;63.79;98847.47;5095337;28;20032;-48
2022/11/24 08:25:31;;;;;;;10.00;5.00;;;;;;;12.14;63.56;98849.34;5095265;28;20445;-48
2022/11/24 08:28:00;;;;;;;15.48;5.78;;;;;;;12.14;64.38;98848.53;5095219;28;20032;-48
2022/11/24 08:30:27;;;;;;;13.02;5.47;;;;;;;12.11;64.66;98855.03;5094925;28;20054;-48
2022/11/24 08:32:53;;;;;;;12.02;5.38;;;;;;;12.09;64.07;98854.41;5077051;28;20020;-48
2022/11/24 08:35:19;;;;;;;12.60;5.85;;;;;;;11.91;63.37;98864.75;5095129;28;20031;-48
2022/11/24 08:37:44;;;;;;;12.45;5.90;;;;;;;11.76;64.64;98852.59;5094140;28;20378;-48
2022/11/24 08:40:11;;;;;;;13.13;5.68;;;;;;;11.95;64.67;98861.53;5093664;28;20551;-48
2022/11/24 08:42:36;;;;;;;11.65;5.07;;;;;;;12.16;63.83;98857.84;5095169;28;20032;-48
2022/11/24 08:45:03;;;;;;;15.43;6.07;;;;;;;12.57;63.85;98858.50;5093557;28;20039;-48
2022/11/24 08:47:28;;;;;;;16.02;6.45;;;;;;;13.36;62.86;98859.94;5093557;28;20112;-48
2022/11/24 08:49:54;;;;;;;16.33;6.85;;;;;;;14.42;60.91;98845.94;5093422;28;20115;-48
2022/11/24 08:52:19;;;;;;;15.88;6.10;;;;;;;14.90;59.73;98845.97;5093339;28;20024;-48
2022/11/24 08:54:45;;;;;;;29.13;7.40;;;;;;;15.00;58.91;98842.00;5093398;28;20031;-47
2022/11/24 08:57:13;;;;;;;17.90;6.28;;;;;;;15.25;58.73;98847.09;5093301;28;20028;-48
2022/11/24 08:59:38;;;;;;;17.52;6.57;;;;;;;15.71;58.29;98843.72;5093588;28;20031;-48
2022/11/24 09:02:04;;;;;;;15.73;5.93;;;;;;;16.01;56.69;98856.06;5094565;28;20023;-48
2022/11/24 09:04:30;;;;;;;15.50;6.13;;;;;;;16.24;54.92;98846.47;5094454;28;20028;-47
2022/11/24 09:06:56;;;;;;;16.92;6.47;;;;;;;15.61;54.13;98854.06;5094424;28;20035;-48
2022/11/24 09:09:22;;;;;;;14.88;6.95;;;;;;;14.97;56.19;98853.84;5092199;28;20024;-48
2022/11/24 09:11:48;;;;;;;14.73;6.80;;;;;;;15.08;57.98;98853.03;5094330;28;20439;-48
2022/11/24 09:14:14;;;;;;;18.45;7.05;;;;;;;15.66;57.61;98854.19;5094644;28;20506;-48
2022/11/24 09:16:40;;;;;;;22.70;6.82;;;;;;;16.43;56.96;98855.88;5094293;28;20067;-48
2022/11/24 09:19:09;;;;;;;16.65;6.75;;;;;;;17.01;54.43;98848.78;5094259;28;20554;-48
2022/11/24 09:21:38;;;;;;;21.20;7.00;;;;;;;17.63;54.04;98855.94;5094172;28;20101;-46
2022/11/24 09:24:06;;;;;;;18.75;7.18;;;;;;;18.19;53.07;98842.69;5094109;28;20046;-46
2022/11/24 09:26:34;;;;;;;17.95;6.72;;;;;;;18.65;51.71;98839.75;5094115;28;20020;-46
2022/11/24 09:29:02;;;;;;;11.80;6.05;;;;;;;19.17;49.86;98839.22;5093761;28;20084;-46
2022/11/24 09:31:33;;;;;;;20.33;6.20;;;;;;;19.69;48.42;98845.78;5093976;28;20084;-46
2022/11/24 09:33:59;;;;;;;18.02;6.68;;;;;;;19.69;47.76;98849.22;5094041;28;20031;-46
2022/11/24 09:36:26;;;;;;;26.83;6.35;;;;;;;19.52;48.32;98854.72;5092579;28;20024;-46
2022/11/24 09:38:52;;;;;;;11.85;5.63;;;;;;;19.82;47.77;98852.53;5093974;28;20051;-46
2022/11/24 09:41:25;;;;;;;15.70;5.85;;;;;;;20.48;46.66;98857.41;5093869;28;20059;-46
2022/11/24 09:44:22;;;;;;;12.45;5.32;;;;;;;20.54;45.95;98856.34;5092565;28;20115;-46
2022/11/24 09:47:05;;;;;;;13.40;4.60;;;;;;;19.88;46.43;98862.97;5094052;28;20035;-46
2022/11/24 09:49:41;;;;;;;18.95;5.43;;;;;;;20.07;48.06;98854.56;5093662;28;20020;-46
2022/11/24 09:52:13;;;;;;;17.40;4.50;;;;;;;20.11;45.83;98856.44;5092449;28;20039;-46
2022/11/24 09:54:49;;;;;;;19.08;5.60;;;;;;;19.62;47.12;98850.50;5093638;28;20451;-46
2022/11/24 09:57:16;;;;;;;29.33;7.80;;;;;;;19.44;46.37;98852.50;5092196;28;20024;-46
2022/11/24 09:59:42;;;;;;;114.88;22.83;;;;;;;19.66;46.21;98859.56;5092081;28;20032;-46
2022/11/24 10:02:14;;;;;;;60.53;15.77;;;;;;;19.71;45.94;98865.78;5092058;28;20371;-46
2022/11/24 10:04:43;;;;;;;41.97;11.73;;;;;;;20.09;46.12;98866.56;5092061;28;20454;-46
2022/11/24 10:07:29;;;;;;;105.32;19.95;;;;;;;20.70;45.40;98860.69;5093192;28;20036;-47
2022/11/24 10:10:19;;;;;;;42.70;12.15;;;;;;;21.17;45.08;98861.63;5093194;28;20025;-46
2022/11/24 10:13:06;;;;;;;45.40;12.93;;;;;;;21.10;43.47;98855.72;5091939;28;20032;-46
2022/11/24 10:15:47;;;;;;;42.78;10.48;;;;;;;20.88;43.43;98853.28;5093203;28;20051;-46
2022/11/24 10:18:42;;;;;;;33.45;9.38;;;;;;;20.63;44.77;98854.84;5093149;28;20028;-46
2022/11/24 10:21:33;;;;;;;13.88;6.43;;;;;;;20.82;44.48;98855.13;5093026;28;20028;-46
2022/11/24 10:24:31;;;;;;;21.85;7.60;;;;;;;21.00;44.05;98859.19;5093060;28;20078;-46
2022/11/24 10:27:18;;;;;;;28.35;8.23;;;;;;;20.74;44.45;98856.47;5093176;28;20020;-46
2022/11/24 10:29:46;;;;;;;38.50;8.82;;;;;;;20.42;44.32;98855.78;5092534;28;20055;-46
2022/11/24 10:32:19;;;;;;;43.17;11.15;;;;;;;20.30;44.32;98848.00;5092784;28;20070;-47
2022/11/24 10:34:49;;;;;;;23.10;7.60;;;;;;;20.22;43.64;98846.66;5092852;28;20031;-47
2022/11/24 10:37:42;;;;;;;27.30;7.68;;;;;;;20.09;45.08;98847.09;5091442;28;20063;-46
2022/11/24 10:40:22;;;;;;;25.48;7.22;;;;;;;19.75;44.57;98856.22;5091674;28;20039;-46
2022/11/24 10:42:47;;;;;;;73.65;15.80;;;;;;;19.98;45.45;98853.44;5092653;28;20032;-46
2022/11/24 10:45:18;;;;;;;33.60;8.38;;;;;;;20.55;44.05;98847.31;5092533;28;20034;-46
2022/11/24 10:47:45;;;;;;;49.83;13.80;;;;;;;20.86;43.35;98844.75;5092614;28;20028;-46
2022/11/24 10:50:24;;;;;;;70.10;11.98;;;;;;;21.18;44.00;98839.19;5092691;28;20034;-47
2022/11/24 10:53:07;;;;;;;89.55;16.20;;;;;;;21.14;43.51;98833.56;5091135;28;20024;-46
2022/11/24 10:55:57;;;;;;;115.25;22.45;;;;;;;21.23;43.82;98831.19;5092369;28;20028;-46
2022/11/24 10:58:28;;;;;;;143.25;25.13;;;;;;;21.37;42.52;98831.47;5091018;28;20026;-47
2022/11/24 11:00:57;;;;;;;120.10;20.95;;;;;;;21.48;42.30;98832.28;5092270;28;20059;-46
2022/11/24 11:03:26;;;;;;;60.20;15.15;;;;;;;21.55;41.95;98816.81;5092578;28;20381;-47
2022/11/24 11:06:23;;;;;;;75.25;15.77;;;;;;;21.57;41.58;98812.00;5091081;28;20105;-47
2022/11/24 11:08:49;;;;;;;138.77;26.00;;;;;;;21.65;40.90;98808.78;5086885;28;20036;-46
2022/11/24 11:11:22;;;;;;;122.50;21.48;;;;;;;21.32;41.72;98805.56;5090777;28;20105;-46
2022/11/24 11:14:03;;;;;;;132.85;24.88;;;;;;;21.10;42.16;98795.16;5092121;28;20022;-47
2022/11/24 11:16:34;;;;;;;35.45;9.48;;;;;;;21.15;42.00;98803.16;5090648;28;20130;-48
2022/11/24 11:19:24;;;;;;;24.85;7.95;;;;;;;21.09;42.14;98795.44;5092172;28;20024;-47
2022/11/24 11:22:00;;;;;;;15.38;6.82;;;;;;;21.52;42.17;98795.97;5091942;28;20024;-47
2022/11/24 11:24:27;;;;;;;15.95;7.05;;;;;;;22.03;40.66;98782.47;5092060;28;20067;-47
2022/11/24 11:27:03;;;;;;;19.98;6.55;;;;;;;22.40;40.56;98783.94;5091809;28;20044;-46
2022/11/24 11:29:30;;;;;;;15.48;5.70;;;;;;;22.79;40.05;98777.81;5090554;28;20040;-47
2022/11/24 11:32:03;;;;;;;17.80;5.60;;;;;;;23.11;38.95;98771.19;5090013;28;20110;-46
2022/11/24 11:34:35;;;;;;;14.57;5.85;;;;;;;23.15;39.05;98769.56;5090983;28;20024;-47
2022/11/24 11:37:03;;;;;;;12.10;5.20;;;;;;;23.13;39.04;98767.16;5091829;28;20073;-46